sensor_id;sensor_type;location;lat;lon;timestamp;P1;durP1;ratioP1;P2;durP2;ratioP2
9280;SDS011;4679;47.966;7.958;2022-09-01T06:00:08;2.77;;;2.57;;
9280;SDS011;4679;47.966;7.958;2022-09-01T06:02:13;3.20;;;3.00;;
9280;SDS011;4679;47.966;7.958;2022-09-01T06:04:15;2.87;;;2.67;;
9280;SDS011;4679;47.966;7.958;2022-09-01T06:06:16;4.60;;;3.60;;
9280;SDS011;4679;47.966;7.958;2022-09-01T06:08:22;3.00;;;2.77;;
9280;SDS011;4679;47.966;7.958;2022-09-01T06:10:28;2.87;;;2.67;;
9280;SDS011;4679;47.966;7.958;2022-09-01T06:12:29;2.83;;;2.63;;
9280;SDS011;4679;47.966;7.958;2022-09-01T06:14:32;3.00;;;2.80;;
9280;SDS011;4679;47.966;7.958;2022-09-01T06:16:36;2.60;;;2.40;;
9280;SDS011;4679;47.966;7.958;2022-09-01T06:18:38;2.90;;;2.70;;
9280;SDS011;4679;47.966;7.958;2022-09-01T06:20:42;3.40;;;3.10;;
9280;SDS011;4679;47.966;7.958;2022-09-01T06:22:46;3.20;;;3.00;;
9280;SDS011;4679;47.966;7.958;2022-09-01T06:24:48;3.00;;;2.80;;
9280;SDS011;4679;47.966;7.958;2022-09-01T06:26:51;2.83;;;2.43;;
9280;SDS011;4679;47.966;7.958;2022-09-01T06:28:54;3.87;;;2.43;;
9280;SDS011;4679;47.966;7.958;2022-09-01T06:30:57;3.77;;;2.40;;
9280;SDS011;4679;47.966;7.958;2022-09-01T06:33:01;4.80;;;3.93;;
9280;SDS011;4679;47.966;7.958;2022-09-01T06:35:05;3.03;;;2.83;;
9280;SDS011;4679;47.966;7.958;2022-09-01T06:37:08;3.63;;;3.33;;
9280;SDS011;4679;47.966;7.958;2022-09-01T06:39:10;3.30;;;3.10;;
9280;SDS011;4679;47.966;7.958;2022-09-01T06:41:19;2.53;;;2.33;;
9280;SDS011;4679;47.966;7.958;2022-09-01T06:43:22;2.30;;;2.20;;
9280;SDS011;4679;47.966;7.958;2022-09-01T06:45:24;1.90;;;1.80;;
9280;SDS011;4679;47.966;7.958;2022-09-01T06:47:27;2.30;;;2.20;;
9280;SDS011;4679;47.966;7.958;2022-09-01T06:49:30;2.47;;;1.80;;
9280;SDS011;4679;47.966;7.958;2022-09-01T06:51:33;1.97;;;1.87;;
9280;SDS011;4679;47.966;7.958;2022-09-01T06:53:36;2.07;;;1.90;;
9280;SDS011;4679;47.966;7.958;2022-09-01T06:55:38;2.37;;;2.17;;
9280;SDS011;4679;47.966;7.958;2022-09-01T06:57:41;2.03;;;1.93;;
9280;SDS011;4679;47.966;7.958;2022-09-01T06:59:45;2.97;;;2.67;;
9280;SDS011;4679;47.966;7.958;2022-09-01T07:01:47;2.63;;;2.20;;
9280;SDS011;4679;47.966;7.958;2022-09-01T07:03:52;2.13;;;2.00;;
9280;SDS011;4679;47.966;7.958;2022-09-01T07:05:57;2.57;;;2.23;;
9280;SDS011;4679;47.966;7.958;2022-09-01T07:07:58;2.07;;;1.87;;
9280;SDS011;4679;47.966;7.958;2022-09-01T07:10:00;2.90;;;2.07;;
9280;SDS011;4679;47.966;7.958;2022-09-01T07:12:02;2.57;;;2.40;;
9280;SDS011;4679;47.966;7.958;2022-09-01T07:14:04;1.83;;;1.73;;
9280;SDS011;4679;47.966;7.958;2022-09-01T07:16:06;1.90;;;1.80;;
9280;SDS011;4679;47.966;7.958;2022-09-01T07:18:08;1.83;;;1.73;;
9280;SDS011;4679;47.966;7.958;2022-09-01T07:20:11;2.63;;;1.90;;
9280;SDS011;4679;47.966;7.958;2022-09-01T07:22:16;2.10;;;1.83;;
9280;SDS011;4679;47.966;7.958;2022-09-01T07:24:18;2.10;;;1.90;;
9280;SDS011;4679;47.966;7.958;2022-09-01T07:26:20;2.30;;;2.20;;
9280;SDS011;4679;47.966;7.958;2022-09-01T07:28:24;2.00;;;1.90;;
9280;SDS011;4679;47.966;7.958;2022-09-01T07:30:29;1.67;;;1.57;;
9280;SDS011;4679;47.966;7.958;2022-09-01T07:32:30;2.00;;;1.90;;
9280;SDS011;4679;47.966;7.958;2022-09-01T07:34:33;1.90;;;1.70;;
9280;SDS011;4679;47.966;7.958;2022-09-01T07:36:36;3.63;;;1.77;;
9280;SDS011;4679;47.966;7.958;2022-09-01T07:38:39;1.70;;;1.60;;
9280;SDS011;4679;47.966;7.958;2022-09-01T07:40:42;1.70;;;1.60;;
9280;SDS011;4679;47.966;7.958;2022-09-01T07:42:45;2.70;;;1.47;;
9280;SDS011;4679;47.966;7.958;2022-09-01T07:44:47;2.73;;;1.60;;
9280;SDS011;4679;47.966;7.958;2022-09-01T07:46:49;1.63;;;1.50;;
9280;SDS011;4679;47.966;7.958;2022-09-01T07:48:51;1.67;;;1.57;;
9280;SDS011;4679;47.966;7.958;2022-09-01T07:50:54;1.70;;;1.60;;
9280;SDS011;4679;47.966;7.958;2022-09-01T07:52:57;1.60;;;1.50;;
9280;SDS011;4679;47.966;7.958;2022-09-01T07:55:01;1.50;;;1.40;;
9280;SDS011;4679;47.966;7.958;2022-09-01T07:57:03;1.70;;;1.60;;
9280;SDS011;4679;47.966;7.958;2022-09-01T07:59:05;1.43;;;1.33;;
9280;SDS011;4679;47.966;7.958;2022-09-01T08:01:08;2.13;;;1.50;;
9280;SDS011;4679;47.966;7.958;2022-09-01T08:03:12;1.60;;;1.50;;
9280;SDS011;4679;47.966;7.958;2022-09-01T08:05:15;2.00;;;1.80;;
9280;SDS011;4679;47.966;7.958;2022-09-01T08:07:21;1.50;;;1.40;;
9280;SDS011;4679;47.966;7.958;2022-09-01T08:09:23;1.57;;;1.47;;
9280;SDS011;4679;47.966;7.958;2022-09-01T08:11:27;1.80;;;1.70;;
9280;SDS011;4679;47.966;7.958;2022-09-01T08:13:30;1.27;;;1.17;;
9280;SDS011;4679;47.966;7.958;2022-09-01T08:15:32;1.50;;;1.40;;
9280;SDS011;4679;47.966;7.958;2022-09-01T08:17:35;1.50;;;1.40;;
9280;SDS011;4679;47.966;7.958;2022-09-01T08:19:37;1.53;;;1.40;;
9280;SDS011;4679;47.966;7.958;2022-09-01T08:21:39;1.60;;;1.50;;
9280;SDS011;4679;47.966;7.958;2022-09-01T08:23:40;1.73;;;1.40;;
9280;SDS011;4679;47.966;7.958;2022-09-01T08:25:43;1.40;;;1.30;;
9280;SDS011;4679;47.966;7.958;2022-09-01T08:27:47;1.93;;;1.47;;
9280;SDS011;4679;47.966;7.958;2022-09-01T08:29:49;1.00;;;1.00;;
9280;SDS011;4679;47.966;7.958;2022-09-01T08:31:51;1.73;;;1.20;;
9280;SDS011;4679;47.966;7.958;2022-09-01T08:33:53;1.43;;;1.33;;
9280;SDS011;4679;47.966;7.958;2022-09-01T08:35:55;1.83;;;1.40;;
9280;SDS011;4679;47.966;7.958;2022-09-01T08:37:57;1.70;;;1.30;;
9280;SDS011;4679;47.966;7.958;2022-09-01T08:39:59;1.40;;;1.30;;
9280;SDS011;4679;47.966;7.958;2022-09-01T08:42:03;1.07;;;1.03;;
9280;SDS011;4679;47.966;7.958;2022-09-01T08:44:18;1.40;;;1.30;;
9280;SDS011;4679;47.966;7.958;2022-09-01T08:46:30;1.30;;;1.20;;
9280;SDS011;4679;47.966;7.958;2022-09-01T08:48:36;1.50;;;1.40;;
9280;SDS011;4679;47.966;7.958;2022-09-01T08:50:41;1.40;;;1.30;;
9280;SDS011;4679;47.966;7.958;2022-09-01T08:52:48;1.53;;;1.20;;
9280;SDS011;4679;47.966;7.958;2022-09-01T08:54:59;1.27;;;1.17;;
9280;SDS011;4679;47.966;7.958;2022-09-01T08:57:07;1.50;;;1.40;;
9280;SDS011;4679;47.966;7.958;2022-09-01T08:59:14;1.60;;;1.50;;
9280;SDS011;4679;47.966;7.958;2022-09-01T09:01:19;2.40;;;1.60;;
9280;SDS011;4679;47.966;7.958;2022-09-01T09:03:31;1.10;;;1.10;;
9280;SDS011;4679;47.966;7.958;2022-09-01T09:05:44;1.10;;;1.10;;
9280;SDS011;4679;47.966;7.958;2022-09-01T09:08:09;1.30;;;1.20;;
9280;SDS011;4679;47.966;7.958;2022-09-01T09:10:28;1.53;;;1.27;;
9280;SDS011;4679;47.966;7.958;2022-09-01T09:12:43;1.27;;;1.17;;
9280;SDS011;4679;47.966;7.958;2022-09-01T09:14:59;1.10;;;1.00;;
9280;SDS011;4679;47.966;7.958;2022-09-01T09:17:12;2.40;;;1.33;;
9280;SDS011;4679;47.966;7.958;2022-09-01T09:19:18;1.30;;;1.20;;
9280;SDS011;4679;47.966;7.958;2022-09-01T09:21:26;1.70;;;1.23;;
9280;SDS011;4679;47.966;7.958;2022-09-01T09:23:32;1.63;;;1.30;;
9280;SDS011;4679;47.966;7.958;2022-09-01T09:25:39;1.10;;;1.10;;
9280;SDS011;4679;47.966;7.958;2022-09-01T09:27:41;1.27;;;1.17;;
9280;SDS011;4679;47.966;7.958;2022-09-01T09:29:45;1.70;;;1.60;;
9280;SDS011;4679;47.966;7.958;2022-09-01T09:31:47;1.40;;;1.30;;
9280;SDS011;4679;47.966;7.958;2022-09-01T09:34:02;1.10;;;1.10;;
9280;SDS011;4679;47.966;7.958;2022-09-01T09:36:16;1.30;;;1.20;;
9280;SDS011;4679;47.966;7.958;2022-09-01T09:38:22;1.27;;;1.17;;
9280;SDS011;4679;47.966;7.958;2022-09-01T09:40:28;1.70;;;1.60;;
9280;SDS011;4679;47.966;7.958;2022-09-01T09:42:29;1.10;;;1.10;;
9280;SDS011;4679;47.966;7.958;2022-09-01T09:44:32;3.07;;;1.30;;
9280;SDS011;4679;47.966;7.958;2022-09-01T09:46:34;1.13;;;1.02;;
9280;SDS011;4679;47.966;7.958;2022-09-01T09:48:38;1.33;;;1.03;;
9280;SDS011;4679;47.966;7.958;2022-09-01T09:50:41;1.37;;;1.10;;
9280;SDS011;4679;47.966;7.958;2022-09-01T09:52:43;1.30;;;1.20;;
9280;SDS011;4679;47.966;7.958;2022-09-01T09:54:59;1.40;;;1.30;;
9280;SDS011;4679;47.966;7.958;2022-09-01T09:57:04;1.30;;;1.20;;
9280;SDS011;4679;47.966;7.958;2022-09-01T09:59:20;1.38;;;0.95;;
9280;SDS011;4679;47.966;7.958;2022-09-01T10:01:28;1.00;;;1.00;;
9280;SDS011;4679;47.966;7.958;2022-09-01T10:03:35;1.30;;;1.23;;
9280;SDS011;4679;47.966;7.958;2022-09-01T10:05:43;1.00;;;1.00;;
9280;SDS011;4679;47.966;7.958;2022-09-01T10:07:47;1.05;;;1.05;;
9280;SDS011;4679;47.966;7.958;2022-09-01T10:09:49;0.85;;;0.85;;
9280;SDS011;4679;47.966;7.958;2022-09-01T10:11:53;1.00;;;1.00;;
9280;SDS011;4679;47.966;7.958;2022-09-01T10:13:56;1.00;;;1.00;;
9280;SDS011;4679;47.966;7.958;2022-09-01T10:15:59;1.05;;;1.05;;
9280;SDS011;4679;47.966;7.958;2022-09-01T10:18:05;1.00;;;1.00;;
9280;SDS011;4679;47.966;7.958;2022-09-01T10:20:11;1.00;;;1.00;;
9280;SDS011;4679;47.966;7.958;2022-09-01T10:22:18;1.17;;;1.10;;
9280;SDS011;4679;47.966;7.958;2022-09-01T10:24:23;1.67;;;1.25;;
9280;SDS011;4679;47.966;7.958;2022-09-01T10:26:29;1.30;;;0.90;;
9280;SDS011;4679;47.966;7.958;2022-09-01T10:28:37;1.20;;;1.10;;
9280;SDS011;4679;47.966;7.958;2022-09-01T10:30:44;1.10;;;1.10;;
9280;SDS011;4679;47.966;7.958;2022-09-01T10:32:48;1.15;;;1.15;;
9280;SDS011;4679;47.966;7.958;2022-09-01T10:34:51;1.27;;;1.17;;
9280;SDS011;4679;47.966;7.958;2022-09-01T10:36:54;1.20;;;1.10;;
9280;SDS011;4679;47.966;7.958;2022-09-01T10:38:57;1.60;;;1.50;;
9280;SDS011;4679;47.966;7.958;2022-09-01T10:40:59;1.20;;;1.20;;
9280;SDS011;4679;47.966;7.958;2022-09-01T10:43:31;1.50;;;1.10;;
9280;SDS011;4679;47.966;7.958;2022-09-01T10:45:36;1.50;;;1.40;;
9280;SDS011;4679;47.966;7.958;2022-09-01T10:47:39;1.85;;;1.75;;
9280;SDS011;4679;47.966;7.958;2022-09-01T10:51:58;2.63;;;2.42;;
9280;SDS011;4679;47.966;7.958;2022-09-01T10:54:01;1.40;;;1.30;;
9280;SDS011;4679;47.966;7.958;2022-09-01T10:56:05;3.25;;;2.70;;
9280;SDS011;4679;47.966;7.958;2022-09-01T10:58:32;2.35;;;2.25;;
9280;SDS011;4679;47.966;7.958;2022-09-01T11:00:44;1.95;;;1.85;;
9280;SDS011;4679;47.966;7.958;2022-09-01T11:03:04;2.22;;;2.03;;
9280;SDS011;4679;47.966;7.958;2022-09-01T11:05:57;2.20;;;1.63;;
9280;SDS011;4679;47.966;7.958;2022-09-01T11:10:32;2.40;;;2.28;;
9280;SDS011;4679;47.966;7.958;2022-09-01T11:12:48;2.28;;;2.10;;
9280;SDS011;4679;47.966;7.958;2022-09-01T11:17:35;2.50;;;1.95;;
9280;SDS011;4679;47.966;7.958;2022-09-01T11:19:40;2.20;;;2.10;;
9280;SDS011;4679;47.966;7.958;2022-09-01T11:21:45;2.38;;;2.20;;
9280;SDS011;4679;47.966;7.958;2022-09-01T11:23:49;1.85;;;1.60;;
9280;SDS011;4679;47.966;7.958;2022-09-01T11:25:53;1.75;;;1.60;;
9280;SDS011;4679;47.966;7.958;2022-09-01T11:28:00;1.90;;;1.80;;
9280;SDS011;4679;47.966;7.958;2022-09-01T11:30:34;1.92;;;1.60;;
9280;SDS011;4679;47.966;7.958;2022-09-01T11:32:51;1.90;;;1.80;;
9280;SDS011;4679;47.966;7.958;2022-09-01T11:35:00;1.70;;;1.60;;
9280;SDS011;4679;47.966;7.958;2022-09-01T11:37:09;1.98;;;1.80;;
9280;SDS011;4679;47.966;7.958;2022-09-01T11:39:20;1.65;;;1.55;;
9280;SDS011;4679;47.966;7.958;2022-09-01T11:41:31;1.67;;;1.58;;
9280;SDS011;4679;47.966;7.958;2022-09-01T11:43:36;1.80;;;1.70;;
9280;SDS011;4679;47.966;7.958;2022-09-01T11:45:40;1.80;;;1.40;;
9280;SDS011;4679;47.966;7.958;2022-09-01T11:47:51;1.77;;;1.67;;
9280;SDS011;4679;47.966;7.958;2022-09-01T11:49:56;1.70;;;1.60;;
9280;SDS011;4679;47.966;7.958;2022-09-01T11:52:00;2.08;;;1.70;;
9280;SDS011;4679;47.966;7.958;2022-09-01T11:54:03;1.70;;;1.60;;
9280;SDS011;4679;47.966;7.958;2022-09-01T11:56:13;1.60;;;1.50;;
9280;SDS011;4679;47.966;7.958;2022-09-01T11:58:27;1.63;;;1.52;;
9280;SDS011;4679;47.966;7.958;2022-09-01T12:00:34;1.42;;;1.38;;
9280;SDS011;4679;47.966;7.958;2022-09-01T12:02:44;1.70;;;1.60;;
9280;SDS011;4679;47.966;7.958;2022-09-01T12:04:47;1.77;;;1.50;;
9280;SDS011;4679;47.966;7.958;2022-09-01T12:06:52;1.20;;;1.20;;
9280;SDS011;4679;47.966;7.958;2022-09-01T12:08:55;1.30;;;1.20;;
9280;SDS011;4679;47.966;7.958;2022-09-01T12:13:05;1.75;;;1.30;;
9280;SDS011;4679;47.966;7.958;2022-09-01T12:15:09;1.33;;;1.23;;
9280;SDS011;4679;47.966;7.958;2022-09-01T12:17:18;1.30;;;1.20;;
9280;SDS011;4679;47.966;7.958;2022-09-01T12:19:23;1.60;;;1.20;;
9280;SDS011;4679;47.966;7.958;2022-09-01T12:21:27;1.50;;;1.20;;
9280;SDS011;4679;47.966;7.958;2022-09-01T12:23:31;1.17;;;1.17;;
9280;SDS011;4679;47.966;7.958;2022-09-01T12:25:34;1.00;;;1.00;;
9280;SDS011;4679;47.966;7.958;2022-09-01T12:27:36;0.70;;;0.70;;
9280;SDS011;4679;47.966;7.958;2022-09-01T12:29:38;1.30;;;0.60;;
9280;SDS011;4679;47.966;7.958;2022-09-01T12:31:41;0.75;;;0.75;;
9280;SDS011;4679;47.966;7.958;2022-09-01T12:33:45;0.73;;;0.73;;
9280;SDS011;4679;47.966;7.958;2022-09-01T12:35:49;1.25;;;1.15;;
9280;SDS011;4679;47.966;7.958;2022-09-01T12:38:12;0.63;;;0.63;;
9280;SDS011;4679;47.966;7.958;2022-09-01T12:40:23;0.90;;;0.90;;
9280;SDS011;4679;47.966;7.958;2022-09-01T12:42:27;0.88;;;0.88;;
9280;SDS011;4679;47.966;7.958;2022-09-01T12:44:31;1.02;;;1.00;;
9280;SDS011;4679;47.966;7.958;2022-09-01T12:46:41;1.95;;;0.90;;
9280;SDS011;4679;47.966;7.958;2022-09-01T12:48:44;0.90;;;0.90;;
9280;SDS011;4679;47.966;7.958;2022-09-01T12:50:46;0.75;;;0.75;;
9280;SDS011;4679;47.966;7.958;2022-09-01T12:52:51;1.20;;;1.00;;
9280;SDS011;4679;47.966;7.958;2022-09-01T12:55:06;1.42;;;1.05;;
9280;SDS011;4679;47.966;7.958;2022-09-01T12:57:21;0.90;;;0.90;;
9280;SDS011;4679;47.966;7.958;2022-09-01T12:59:27;1.13;;;1.13;;
9280;SDS011;4679;47.966;7.958;2022-09-01T13:01:30;1.08;;;1.08;;
9280;SDS011;4679;47.966;7.958;2022-09-01T13:03:34;0.90;;;0.90;;
9280;SDS011;4679;47.966;7.958;2022-09-01T13:05:36;1.85;;;1.10;;
9280;SDS011;4679;47.966;7.958;2022-09-01T13:07:39;1.08;;;1.08;;
9280;SDS011;4679;47.966;7.958;2022-09-01T13:09:42;0.90;;;0.90;;
9280;SDS011;4679;47.966;7.958;2022-09-01T13:11:44;1.00;;;1.00;;
9280;SDS011;4679;47.966;7.958;2022-09-01T13:13:47;0.90;;;0.90;;
9280;SDS011;4679;47.966;7.958;2022-09-01T13:15:50;1.10;;;1.10;;
9280;SDS011;4679;47.966;7.958;2022-09-01T13:17:53;0.93;;;0.93;;
9280;SDS011;4679;47.966;7.958;2022-09-01T13:19:55;0.82;;;0.70;;
9280;SDS011;4679;47.966;7.958;2022-09-01T13:21:56;0.70;;;0.70;;
9280;SDS011;4679;47.966;7.958;2022-09-01T13:23:58;0.80;;;0.80;;
9280;SDS011;4679;47.966;7.958;2022-09-01T13:26:02;1.02;;;0.60;;
9280;SDS011;4679;47.966;7.958;2022-09-01T13:28:04;0.73;;;0.73;;
9280;SDS011;4679;47.966;7.958;2022-09-01T13:30:07;0.95;;;0.80;;
9280;SDS011;4679;47.966;7.958;2022-09-01T13:32:09;0.55;;;0.55;;
9280;SDS011;4679;47.966;7.958;2022-09-01T13:34:11;0.70;;;0.60;;
9280;SDS011;4679;47.966;7.958;2022-09-01T13:36:12;0.60;;;0.60;;
9280;SDS011;4679;47.966;7.958;2022-09-01T13:38:15;0.70;;;0.70;;
9280;SDS011;4679;47.966;7.958;2022-09-01T13:40:18;0.60;;;0.60;;
9280;SDS011;4679;47.966;7.958;2022-09-01T13:42:22;0.60;;;0.60;;
9280;SDS011;4679;47.966;7.958;2022-09-01T13:44:24;0.75;;;0.75;;
9280;SDS011;4679;47.966;7.958;2022-09-01T13:46:26;0.70;;;0.70;;
9280;SDS011;4679;47.966;7.958;2022-09-01T13:48:28;0.65;;;0.65;;
9280;SDS011;4679;47.966;7.958;2022-09-01T13:50:29;0.82;;;0.82;;
9280;SDS011;4679;47.966;7.958;2022-09-01T13:52:31;1.00;;;1.00;;
9280;SDS011;4679;47.966;7.958;2022-09-01T13:54:33;0.80;;;0.80;;
9280;SDS011;4679;47.966;7.958;2022-09-01T13:56:35;0.70;;;0.70;;
9280;SDS011;4679;47.966;7.958;2022-09-01T13:58:38;0.70;;;0.70;;
9280;SDS011;4679;47.966;7.958;2022-09-01T14:00:41;0.60;;;0.60;;
9280;SDS011;4679;47.966;7.958;2022-09-01T14:02:44;0.60;;;0.60;;
9280;SDS011;4679;47.966;7.958;2022-09-01T14:04:49;0.52;;;0.52;;
9280;SDS011;4679;47.966;7.958;2022-09-01T14:06:50;0.50;;;0.50;;
9280;SDS011;4679;47.966;7.958;2022-09-01T14:08:53;0.70;;;0.70;;
9280;SDS011;4679;47.966;7.958;2022-09-01T14:10:54;3.33;;;0.70;;
9280;SDS011;4679;47.966;7.958;2022-09-01T14:12:56;0.70;;;0.70;;
9280;SDS011;4679;47.966;7.958;2022-09-01T14:14:59;0.50;;;0.50;;
9280;SDS011;4679;47.966;7.958;2022-09-01T14:17:01;0.60;;;0.60;;
9280;SDS011;4679;47.966;7.958;2022-09-01T14:19:03;0.60;;;0.60;;
9280;SDS011;4679;47.966;7.958;2022-09-01T14:21:05;0.60;;;0.60;;
9280;SDS011;4679;47.966;7.958;2022-09-01T14:23:12;0.57;;;0.45;;
9280;SDS011;4679;47.966;7.958;2022-09-01T14:25:15;0.65;;;0.60;;
9280;SDS011;4679;47.966;7.958;2022-09-01T14:27:18;0.50;;;0.50;;
9280;SDS011;4679;47.966;7.958;2022-09-01T14:29:20;0.68;;;0.68;;
9280;SDS011;4679;47.966;7.958;2022-09-01T14:31:23;1.95;;;0.70;;
9280;SDS011;4679;47.966;7.958;2022-09-01T14:33:24;0.57;;;0.57;;
9280;SDS011;4679;47.966;7.958;2022-09-01T14:35:27;0.60;;;0.60;;
9280;SDS011;4679;47.966;7.958;2022-09-01T14:37:32;0.55;;;0.55;;
9280;SDS011;4679;47.966;7.958;2022-09-01T14:39:34;0.50;;;0.50;;
9280;SDS011;4679;47.966;7.958;2022-09-01T14:41:37;0.73;;;0.70;;
9280;SDS011;4679;47.966;7.958;2022-09-01T14:43:38;0.82;;;0.68;;
9280;SDS011;4679;47.966;7.958;2022-09-01T14:45:42;0.70;;;0.70;;
9280;SDS011;4679;47.966;7.958;2022-09-01T14:47:49;0.65;;;0.65;;
9280;SDS011;4679;47.966;7.958;2022-09-01T14:49:53;0.70;;;0.70;;
9280;SDS011;4679;47.966;7.958;2022-09-01T14:51:55;0.80;;;0.80;;
9280;SDS011;4679;47.966;7.958;2022-09-01T14:53:56;1.38;;;0.70;;
9280;SDS011;4679;47.966;7.958;2022-09-01T14:55:59;0.55;;;0.55;;
9280;SDS011;4679;47.966;7.958;2022-09-01T14:58:02;0.70;;;0.70;;
9280;SDS011;4679;47.966;7.958;2022-09-01T15:00:04;0.50;;;0.50;;
9280;SDS011;4679;47.966;7.958;2022-09-01T15:02:11;0.70;;;0.70;;
9280;SDS011;4679;47.966;7.958;2022-09-01T15:04:14;0.70;;;0.70;;
9280;SDS011;4679;47.966;7.958;2022-09-01T15:06:16;0.70;;;0.70;;
9280;SDS011;4679;47.966;7.958;2022-09-01T15:08:19;0.60;;;0.60;;
9280;SDS011;4679;47.966;7.958;2022-09-01T15:10:23;0.60;;;0.60;;
9280;SDS011;4679;47.966;7.958;2022-09-01T15:12:26;2.58;;;0.90;;
9280;SDS011;4679;47.966;7.958;2022-09-01T15:14:30;11.63;;;0.88;;
9280;SDS011;4679;47.966;7.958;2022-09-01T15:16:32;3.13;;;0.70;;
9280;SDS011;4679;47.966;7.958;2022-09-01T15:18:38;0.75;;;0.75;;
9280;SDS011;4679;47.966;7.958;2022-09-01T15:20:41;0.68;;;0.68;;
9280;SDS011;4679;47.966;7.958;2022-09-01T15:22:46;0.80;;;0.80;;
9280;SDS011;4679;47.966;7.958;2022-09-01T15:24:48;0.70;;;0.70;;
9280;SDS011;4679;47.966;7.958;2022-09-01T15:26:50;0.80;;;0.80;;
9280;SDS011;4679;47.966;7.958;2022-09-01T15:28:52;1.15;;;0.70;;
9280;SDS011;4679;47.966;7.958;2022-09-01T15:30:54;0.70;;;0.70;;
9280;SDS011;4679;47.966;7.958;2022-09-01T15:32:56;0.70;;;0.70;;
9280;SDS011;4679;47.966;7.958;2022-09-01T15:34:58;0.75;;;0.75;;
9280;SDS011;4679;47.966;7.958;2022-09-01T15:37:01;1.35;;;0.70;;
9280;SDS011;4679;47.966;7.958;2022-09-01T15:39:03;0.80;;;0.80;;
9280;SDS011;4679;47.966;7.958;2022-09-01T15:41:04;0.80;;;0.80;;
9280;SDS011;4679;47.966;7.958;2022-09-01T15:43:06;1.70;;;0.90;;
9280;SDS011;4679;47.966;7.958;2022-09-01T15:45:09;1.23;;;0.88;;
9280;SDS011;4679;47.966;7.958;2022-09-01T15:47:12;0.90;;;0.90;;
9280;SDS011;4679;47.966;7.958;2022-09-01T15:49:14;0.82;;;0.82;;
9280;SDS011;4679;47.966;7.958;2022-09-01T15:51:27;1.00;;;1.00;;
9280;SDS011;4679;47.966;7.958;2022-09-01T15:53:33;1.45;;;0.88;;
9280;SDS011;4679;47.966;7.958;2022-09-01T15:55:37;0.60;;;0.60;;
9280;SDS011;4679;47.966;7.958;2022-09-01T15:57:41;0.65;;;0.65;;
9280;SDS011;4679;47.966;7.958;2022-09-01T15:59:42;0.80;;;0.80;;
9280;SDS011;4679;47.966;7.958;2022-09-01T16:01:44;0.70;;;0.70;;
9280;SDS011;4679;47.966;7.958;2022-09-01T16:03:46;2.47;;;0.80;;
9280;SDS011;4679;47.966;7.958;2022-09-01T16:05:48;0.70;;;0.70;;
9280;SDS011;4679;47.966;7.958;2022-09-01T16:07:50;1.05;;;0.70;;
9280;SDS011;4679;47.966;7.958;2022-09-01T16:09:55;0.80;;;0.80;;
9280;SDS011;4679;47.966;7.958;2022-09-01T16:11:57;3.40;;;0.90;;
9280;SDS011;4679;47.966;7.958;2022-09-01T16:13:58;0.77;;;0.77;;
9280;SDS011;4679;47.966;7.958;2022-09-01T16:16:03;1.40;;;0.73;;
9280;SDS011;4679;47.966;7.958;2022-09-01T16:18:17;0.80;;;0.80;;
9280;SDS011;4679;47.966;7.958;2022-09-01T16:20:33;1.05;;;0.73;;
9280;SDS011;4679;47.966;7.958;2022-09-01T16:22:37;0.70;;;0.70;;
9280;SDS011;4679;47.966;7.958;2022-09-01T16:24:47;0.82;;;0.82;;
9280;SDS011;4679;47.966;7.958;2022-09-01T16:26:52;0.80;;;0.80;;
9280;SDS011;4679;47.966;7.958;2022-09-01T16:28:56;1.40;;;0.90;;
9280;SDS011;4679;47.966;7.958;2022-09-01T16:31:01;0.70;;;0.70;;
9280;SDS011;4679;47.966;7.958;2022-09-01T16:33:07;0.85;;;0.85;;
9280;SDS011;4679;47.966;7.958;2022-09-01T16:35:19;1.50;;;0.80;;
9280;SDS011;4679;47.966;7.958;2022-09-01T16:37:30;1.50;;;0.80;;
9280;SDS011;4679;47.966;7.958;2022-09-01T16:39:42;0.90;;;0.90;;
9280;SDS011;4679;47.966;7.958;2022-09-01T16:41:49;0.82;;;0.82;;
9280;SDS011;4679;47.966;7.958;2022-09-01T16:44:02;0.90;;;0.90;;
9280;SDS011;4679;47.966;7.958;2022-09-01T16:46:11;1.00;;;0.90;;
9280;SDS011;4679;47.966;7.958;2022-09-01T16:48:24;1.38;;;0.95;;
9280;SDS011;4679;47.966;7.958;2022-09-01T16:50:34;0.90;;;0.90;;
9280;SDS011;4679;47.966;7.958;2022-09-01T16:52:44;1.38;;;0.88;;
9280;SDS011;4679;47.966;7.958;2022-09-01T16:55:14;0.80;;;0.80;;
9280;SDS011;4679;47.966;7.958;2022-09-01T16:57:24;1.33;;;0.95;;
9280;SDS011;4679;47.966;7.958;2022-09-01T16:59:33;0.85;;;0.85;;
9280;SDS011;4679;47.966;7.958;2022-09-01T17:01:41;0.80;;;0.80;;
9280;SDS011;4679;47.966;7.958;2022-09-01T17:03:52;2.58;;;0.73;;
9280;SDS011;4679;47.966;7.958;2022-09-01T17:06:00;1.13;;;0.82;;
9280;SDS011;4679;47.966;7.958;2022-09-01T17:08:09;0.90;;;0.90;;
9280;SDS011;4679;47.966;7.958;2022-09-01T17:10:21;0.90;;;0.90;;
9280;SDS011;4679;47.966;7.958;2022-09-01T17:12:34;0.75;;;0.70;;
9280;SDS011;4679;47.966;7.958;2022-09-01T17:14:41;0.82;;;0.80;;
9280;SDS011;4679;47.966;7.958;2022-09-01T17:16:48;0.88;;;0.88;;
9280;SDS011;4679;47.966;7.958;2022-09-01T17:18:54;1.20;;;0.98;;
9280;SDS011;4679;47.966;7.958;2022-09-01T17:21:00;0.98;;;0.98;;
9280;SDS011;4679;47.966;7.958;2022-09-01T17:23:08;0.93;;;0.90;;
9280;SDS011;4679;47.966;7.958;2022-09-01T17:25:18;1.08;;;1.00;;
9280;SDS011;4679;47.966;7.958;2022-09-01T17:27:30;0.90;;;0.90;;
9280;SDS011;4679;47.966;7.958;2022-09-01T17:29:40;1.02;;;1.00;;
9280;SDS011;4679;47.966;7.958;2022-09-01T17:31:46;1.33;;;1.00;;
9280;SDS011;4679;47.966;7.958;2022-09-01T17:34:00;0.90;;;0.90;;
9280;SDS011;4679;47.966;7.958;2022-09-01T17:36:12;1.20;;;1.20;;
9280;SDS011;4679;47.966;7.958;2022-09-01T17:38:24;0.90;;;0.90;;
9280;SDS011;4679;47.966;7.958;2022-09-01T17:40:34;0.70;;;0.70;;
9280;SDS011;4679;47.966;7.958;2022-09-01T17:42:50;0.80;;;0.80;;
9280;SDS011;4679;47.966;7.958;2022-09-01T17:45:03;1.85;;;0.80;;
9280;SDS011;4679;47.966;7.958;2022-09-01T17:47:14;1.30;;;1.00;;
9280;SDS011;4679;47.966;7.958;2022-09-01T17:49:26;0.90;;;0.90;;
9280;SDS011;4679;47.966;7.958;2022-09-01T17:51:36;1.08;;;1.08;;
9280;SDS011;4679;47.966;7.958;2022-09-01T17:53:47;5.32;;;1.00;;
9280;SDS011;4679;47.966;7.958;2022-09-01T17:55:56;1.02;;;1.02;;
9280;SDS011;4679;47.966;7.958;2022-09-01T17:58:03;1.00;;;1.00;;
9280;SDS011;4679;47.966;7.958;2022-09-01T18:00:16;1.00;;;1.00;;
9280;SDS011;4679;47.966;7.958;2022-09-01T18:02:30;1.10;;;1.10;;
9280;SDS011;4679;47.966;7.958;2022-09-01T18:04:54;1.00;;;1.00;;
9280;SDS011;4679;47.966;7.958;2022-09-01T18:07:02;1.30;;;1.20;;
9280;SDS011;4679;47.966;7.958;2022-09-01T18:09:10;0.90;;;0.90;;
9280;SDS011;4679;47.966;7.958;2022-09-01T18:11:17;2.63;;;1.00;;
9280;SDS011;4679;47.966;7.958;2022-09-01T18:13:25;1.10;;;1.00;;
9280;SDS011;4679;47.966;7.958;2022-09-01T18:15:37;1.00;;;1.00;;
9280;SDS011;4679;47.966;7.958;2022-09-01T18:17:43;1.20;;;1.10;;
9280;SDS011;4679;47.966;7.958;2022-09-01T18:19:50;1.37;;;1.00;;
9280;SDS011;4679;47.966;7.958;2022-09-01T18:21:59;1.27;;;1.27;;
9280;SDS011;4679;47.966;7.958;2022-09-01T18:24:05;2.83;;;1.40;;
9280;SDS011;4679;47.966;7.958;2022-09-01T18:26:16;1.50;;;1.40;;
9280;SDS011;4679;47.966;7.958;2022-09-01T18:28:23;1.37;;;1.13;;
9280;SDS011;4679;47.966;7.958;2022-09-01T18:30:25;2.33;;;1.27;;
9280;SDS011;4679;47.966;7.958;2022-09-01T18:32:32;1.40;;;1.30;;
9280;SDS011;4679;47.966;7.958;2022-09-01T18:34:46;1.13;;;1.13;;
9280;SDS011;4679;47.966;7.958;2022-09-01T18:36:58;1.37;;;1.27;;
9280;SDS011;4679;47.966;7.958;2022-09-01T18:39:10;1.50;;;1.20;;
9280;SDS011;4679;47.966;7.958;2022-09-01T18:41:19;1.30;;;1.20;;
9280;SDS011;4679;47.966;7.958;2022-09-01T18:43:33;1.57;;;1.33;;
9280;SDS011;4679;47.966;7.958;2022-09-01T18:45:39;1.30;;;1.20;;
9280;SDS011;4679;47.966;7.958;2022-09-01T18:47:47;1.87;;;1.60;;
9280;SDS011;4679;47.966;7.958;2022-09-01T18:49:58;1.40;;;1.30;;
9280;SDS011;4679;47.966;7.958;2022-09-01T18:52:10;1.53;;;1.43;;
9280;SDS011;4679;47.966;7.958;2022-09-01T18:54:21;1.50;;;1.40;;
9280;SDS011;4679;47.966;7.958;2022-09-01T18:56:33;1.30;;;1.20;;
9280;SDS011;4679;47.966;7.958;2022-09-01T18:58:45;1.33;;;1.30;;
9280;SDS011;4679;47.966;7.958;2022-09-01T19:00:59;1.50;;;1.40;;
9280;SDS011;4679;47.966;7.958;2022-09-01T19:03:11;1.47;;;1.37;;
9280;SDS011;4679;47.966;7.958;2022-09-01T19:05:22;1.37;;;1.30;;
9280;SDS011;4679;47.966;7.958;2022-09-01T19:07:32;1.70;;;1.60;;
9280;SDS011;4679;47.966;7.958;2022-09-01T19:09:41;1.40;;;1.30;;
9280;SDS011;4679;47.966;7.958;2022-09-01T19:11:55;4.70;;;1.50;;